Latest Weather Observations for Melbourne Airport

IDV60901

Issued at 6:51 am EST Saturday 19 September 2020 (issued every 10 minutes, with the page automatically refreshed every 10 minutes)

About weather observations | Map of Melbourne area stations | Latest observations for Melbourne area | Other Formats
Station Details ID: 086282 Name: MELBOURNE AIRPORT Lat: -37.67 Lon: 144.83 Height: 113.4 m
Data from the previous 72 hours. | See also: Recent months at Melbourne Airport
Date/Time
EST
Temp
°C
App
Temp
°C
Dew
Point
°C
Rel
Hum
%
Delta-T
°C
Wind Press
QNH
hPa
Press
MSL
hPa
Rain since
9am
mm
Dir  Spd
km/h
Gust
km/h
Spd
kts
Gust
kts
19/06:30am 14.4 12.6 12.2 87 1.2 NE 13 17 7 9 1021.0 1021.1 0.0
19/06:00am 14.9 13.2 12.3 84 1.4 NNE 13 19 7 10 1021.1 1021.2 0.0
19/05:30am 13.6 11.7 11.7 88 1.0 N 13 17 7 9 1021.0 1021.1 0.0
19/05:00am 14.2 11.7 12.2 88 1.1 NNE 17 19 9 10 1021.0 1021.1 0.0
19/04:30am 14.3 11.7 12.1 87 1.2 NNE 17 19 9 10 1021.0 1021.1 0.0
19/04:00am 12.9 10.2 11.6 92 0.7 NNE 17 17 9 9 1021.0 1021.1 0.0
19/03:30am 11.6 9.8 10.8 95 0.4 ENE 11 13 6 7 1021.4 1021.5 0.0
19/03:00am 12.3 11.4 11.2 93 0.6 ESE 7 9 4 5 1021.7 1021.8 0.0
19/02:30am 13.0 11.4 11.5 91 0.8 ESE 11 13 6 7 1021.8 1021.9 0.0
19/02:00am 12.7 11.4 11.4 92 0.7 E 9 13 5 7 1022.2 1022.3 0.0
19/01:30am 12.9 10.9 11.4 91 0.8 E 13 15 7 8 1022.6 1022.7 0.0
19/01:00am 12.1 11.0 10.8 92 0.7 ENE 7 11 4 6 1022.9 1023.0 0.0
19/12:30am 10.7 9.4 9.9 95 0.4 NNE 7 9 4 5 1023.2 1023.3 0.0
19/12:00am 10.8 8.7 9.8 93 0.5 NNE 11 11 6 6 1023.2 1023.3 0.0
 
Date/Time
EST
Temp
°C
App
Temp
°C
Dew
Point
°C
Rel
Hum
%
Delta-T
°C
Wind Press
QNH
hPa
Press
MSL
hPa
Rain since
9am
mm
Dir  Spd
km/h
Gust
km/h
Spd
kts
Gust
kts
18/11:30pm 10.6 8.8 9.6 93 0.5 NNE 9 11 5 6 1023.4 1023.5 0.0
18/11:00pm 10.8 9.4 9.6 92 0.6 N 7 9 4 5 1023.6 1023.7 0.0
18/10:30pm 11.6 10.4 10.2 91 0.7 N 7 9 4 5 1023.8 1023.9 0.0
18/10:00pm 11.9 10.0 10.5 91 0.7 N 11 13 6 7 1024.2 1024.3 0.0
18/09:30pm 11.6 11.6 9.8 89 0.9 CALM 0 0 0 0 1024.4 1024.5 0.0
18/09:00pm 13.1 13.2 10.2 82 1.5 CALM 0 0 0 0 1024.8 1024.9 0.0
18/08:30pm 13.3 12.3 10.4 82 1.5 S 6 7 3 4 1024.8 1024.9 0.0
18/08:00pm 13.5 13.7 10.6 82 1.5 CALM 0 0 0 0 1025.0 1025.1 0.0
18/07:30pm 13.6 12.7 10.7 82 1.5 SSW 6 9 3 5 1024.9 1025.0 0.0
18/07:00pm 14.1 14.2 11.5 84 1.4 SSW 2 6 1 3 1024.8 1024.9 0.0
18/06:30pm 14.6 15.0 11.2 80 1.8 CALM 0 0 0 0 1024.9 1025.0 0.0
18/06:00pm 14.8 14.0 11.6 81 1.7 S 7 9 4 5 1024.8 1024.9 0.0
18/05:30pm 15.8 14.3 11.9 77 2.1 S 11 13 6 7 1024.7 1024.8 0.0
18/05:00pm 17.7 16.2 11.9 69 3.2 ENE 11 13 6 7 1024.6 1024.7 0.0
18/04:30pm 17.9 18.0 11.5 66 3.5 SE 2 7 1 4 1024.5 1024.6 0.0
18/04:00pm 17.6 17.1 12.0 69 3.1 ESE 6 9 3 5 1024.6 1024.7 0.0
18/03:30pm 17.5 17.1 12.3 71 2.9 NNE 6 9 3 5 1024.8 1024.9 0.0
18/03:00pm 17.1 16.4 11.4 69 3.1 NE 6 9 3 5 1025.0 1025.1 0.0
18/02:30pm 16.8 15.5 11.2 69 3.0 NNE 9 13 5 7 1025.3 1025.4 0.0
18/02:00pm 16.2 15.8 11.2 72 2.7 NNE 4 7 2 4 1025.8 1025.9 0.0
18/01:30pm 16.1 15.2 10.6 70 2.9 NE 6 9 3 5 1026.1 1026.2 0.0
18/01:00pm 15.9 16.2 10.8 71 2.7 CALM 0 9 0 5 1026.3 1026.4 0.0
18/12:30pm 15.5 15.8 10.8 73 2.5 CALM 0 7 0 4 1027.0 1027.0 0.0
18/12:00pm 15.2 14.9 10.0 71 2.7 E 2 9 1 5 1027.4 1027.4 0.0
18/11:30am 14.7 14.7 9.7 72 2.6 CALM 0 0 0 0 1027.6 1027.6 0.0
18/11:00am 14.7 14.4 10.1 74 2.4 N 2 9 1 5 1027.7 1027.7 0.0
18/10:30am 13.8 13.4 9.9 77 2.0 W 2 7 1 4 1028.1 1028.2 0.0
18/10:00am 13.1 12.3 9.6 79 1.8 W 4 13 2 7 1028.3 1028.4 0.0
18/09:43am 12.7 10.9 9.6 81 1.6 WSW 9 13 5 7 1028.4 1028.5 0.0
18/09:30am 12.7 11.2 9.3 80 1.7 WNW 7 11 4 6 1028.5 1028.6 0.0
18/09:00am 12.3 10.5 9.3 82 1.5 W 9 11 5 6 1028.4 1028.5 0.0
18/08:30am 11.7 9.6 9.7 87 1.0 W 11 13 6 7 1028.4 1028.5 0.0
18/08:00am 11.3 9.1 9.3 87 1.0 W 11 15 6 8 1028.2 1028.3 0.0
18/07:30am 10.8 9.4 9.4 91 0.7 WSW 7 9 4 5 1028.3 1028.4 0.0
18/07:00am 10.3 9.0 9.1 92 0.6 S 6 7 3 4 1027.9 1027.9 0.0
18/06:30am 9.8 9.6 9.0 95 0.4 CALM 0 2 0 1 1027.3 1027.3 0.0
18/06:00am 9.6 8.2 8.8 95 0.4 WNW 6 7 3 4 1027.2 1027.2 0.0
18/05:30am 9.5 7.5 8.7 95 0.4 WNW 9 11 5 6 1027.0 1027.0 0.0
18/05:00am 9.3 7.8 8.5 95 0.4 WNW 6 7 3 4 1026.8 1026.9 0.0
18/04:30am 9.4 7.7 8.4 93 0.5 WNW 7 9 4 5 1026.6 1026.7 0.0
18/04:00am 9.8 8.4 8.8 93 0.5 W 6 7 3 4 1026.7 1026.8 0.0
18/03:30am 9.5 7.8 8.5 93 0.5 WNW 7 9 4 5 1027.0 1027.0 0.0
18/03:00am 9.4 7.9 8.4 93 0.5 SW 6 7 3 4 1026.8 1026.9 0.0
18/02:30am 9.7 9.0 8.5 92 0.6 SW 2 9 1 5 1027.2 1027.2 0.0
18/02:00am 9.9 7.9 8.7 92 0.6 SW 9 9 5 5 1027.5 1027.5 0.0
18/01:30am 10.3 8.7 8.9 91 0.7 SW 7 9 4 5 1027.7 1027.7 0.0
18/01:00am 10.2 8.3 9.0 92 0.6 SW 9 11 5 6 1028.0 1028.1 0.0
18/12:30am 10.2 8.6 8.8 91 0.7 SW 7 9 4 5 1028.0 1028.1 0.0
18/12:00am 10.3 8.3 8.7 90 0.8 SSW 9 9 5 5 1028.1 1028.2 0.0
 
Date/Time
EST
Temp
°C
App
Temp
°C
Dew
Point
°C
Rel
Hum
%
Delta-T
°C
Wind Press
QNH
hPa
Press
MSL
hPa
Rain since
9am
mm
Dir  Spd
km/h
Gust
km/h
Spd
kts
Gust
kts
17/11:30pm 10.5 8.6 8.9 90 0.8 SSW 9 13 5 7 1028.2 1028.3 0.0
17/11:00pm 10.8 8.5 9.0 89 0.9 SSW 11 15 6 8 1028.1 1028.2 0.0
17/10:30pm 10.7 7.9 8.7 87 1.0 SSW 13 15 7 8 1028.4 1028.5 0.0
17/10:21pm 10.4 7.6 8.6 89 0.9 SSW 13 17 7 9 1028.3 1028.4 0.0
17/10:00pm 10.2 7.4 8.6 90 0.8 WSW 13 15 7 8 1028.7 1028.8 0.0
17/09:30pm 10.3 8.3 8.5 89 0.9 SSW 9 13 5 7 1028.6 1028.7 0.0
17/09:00pm 10.6 7.7 8.1 84 1.2 SSW 13 17 7 9 1028.6 1028.7 0.0
17/08:30pm 10.8 7.5 7.9 82 1.4 SSW 15 19 8 10 1028.5 1028.6 0.0
17/08:00pm 11.0 7.7 8.1 82 1.4 SSW 15 20 8 11 1028.5 1028.6 0.0
17/07:30pm 11.3 7.9 7.8 79 1.7 S 15 20 8 11 1028.1 1028.2 0.0
17/07:00pm 11.3 7.2 7.8 79 1.7 S 19 28 10 15 1027.8 1027.8 0.0
17/06:30pm 11.5 7.8 7.8 78 1.8 SSW 17 26 9 14 1027.6 1027.6 0.0
17/06:00pm 11.9 7.8 8.0 77 1.9 SSW 19 26 10 14 1027.2 1027.2 0.0
17/05:30pm 12.1 8.5 8.5 78 1.8 SSW 17 22 9 12 1026.8 1026.9 0.0
17/05:00pm 12.6 8.1 8.4 75 2.1 SSW 22 28 12 15 1026.6 1026.7 0.0
17/04:30pm 12.7 8.9 8.9 78 1.9 S 19 26 10 14 1026.1 1026.2 0.0
17/04:00pm 13.2 8.9 9.3 77 2.0 S 22 30 12 16 1026.0 1026.1 0.0
17/03:30pm 13.0 7.9 9.2 78 1.9 S 26 33 14 18 1025.7 1025.8 0.0
17/03:00pm 13.5 8.7 8.7 73 2.4 SSW 24 32 13 17 1025.7 1025.8 0.0
17/02:30pm 13.4 9.1 9.3 76 2.1 S 22 30 12 16 1025.6 1025.7 0.0
17/02:00pm 14.1 9.4 9.2 72 2.5 S 24 35 13 19 1025.5 1025.6 0.0
17/01:30pm 14.2 10.0 9.7 74 2.3 S 22 30 12 16 1025.3 1025.4 0.0
17/01:00pm 14.1 10.2 9.4 73 2.4 S 20 28 11 15 1025.5 1025.6 0.0
17/12:30pm 14.3 10.3 9.0 70 2.7 S 20 28 11 15 1025.5 1025.6 0.0
17/12:00pm 14.1 9.9 8.3 68 2.9 S 20 28 11 15 1025.7 1025.8 0.0
17/11:30am 13.6 9.3 7.7 67 2.9 S 20 30 11 16 1025.6 1025.7 0.0
17/11:00am 13.5 9.6 8.7 73 2.4 SSW 19 24 10 13 1025.7 1025.8 0.0
17/10:30am 13.4 9.0 8.8 74 2.3 S 22 28 12 15 1025.7 1025.8 0.0
17/10:00am 12.6 9.9 10.3 86 1.2 S 15 19 8 10 1025.6 1025.7 0.0
17/09:30am 11.6 8.9 10.4 92 0.6 S 15 19 8 10 1025.3 1025.4 0.0
17/09:12am 11.4 8.8 10.6 95 0.4 S 15 19 8 10 1025.3 1025.4 0.0
17/09:00am 11.4 8.8 10.8 96 0.3 SSW 15 20 8 11 1025.1 1025.2 0.0
17/08:50am 11.4 8.9 11.0 97 0.2 SSW 15 19 8 10 1024.9 1025.0 0.0
17/08:45am 11.5 8.5 10.7 95 0.4 SSW 17 19 9 10 1024.9 1025.0 0.0
17/08:30am 11.8 9.2 10.6 92 0.6 SSW 15 20 8 11 1024.7 1024.8 0.0
17/08:20am 12.0 9.8 10.7 92 0.7 SSW 13 15 7 8 1024.6 1024.7 0.0
17/08:00am 11.7 9.9 10.7 94 0.5 SW 11 13 6 7 1024.3 1024.4 0.0
17/07:30am 11.5 11.7 10.7 95 0.4 CALM 0 0 0 0 1023.9 1024.0 0.0
17/07:13am 11.0 11.2 10.4 96 0.3 CALM 0 0 0 0 1023.3 1023.4 0.0
17/07:00am 10.8 10.6 10.4 97 0.2 WSW 2 6 1 3 1022.9 1023.0 0.0
17/06:36am 10.8 10.5 10.2 96 0.3 NW 2 6 1 3 1022.5 1022.6 0.0
17/06:30am 10.8 10.1 10.2 96 0.3 NW 4 11 2 6 1022.5 1022.6 0.0
17/06:00am 10.7 9.1 10.3 97 0.2 W 9 11 5 6 1022.2 1022.3 0.0
17/05:30am 10.7 9.7 10.3 97 0.2 WNW 6 7 3 4 1021.5 1021.6 0.0
17/05:00am 10.7 10.8 10.3 97 0.2 CALM 0 0 0 0 1020.9 1021.0 0.0
17/04:30am 10.9 9.6 10.1 95 0.4 SSW 7 9 4 5 1020.8 1020.8 0.0
17/04:00am 11.1 9.5 10.1 94 0.5 SSE 9 15 5 8 1020.0 1020.0 0.0
17/03:30am 11.3 8.5 10.1 92 0.6 WSW 15 19 8 10 1021.6 1021.7 0.0
17/03:00am 11.5 8.8 10.5 94 0.5 SW 15 22 8 12 1021.1 1021.2 0.0
17/02:30am 11.8 9.2 10.8 94 0.5 SW 15 19 8 10 1020.7 1020.7 0.0
17/02:00am 11.7 8.7 10.7 94 0.5 WSW 17 26 9 14 1020.5 1020.5 0.0
17/01:30am 11.0 8.6 10.0 93 0.5 WSW 13 17 7 9 1020.1 1020.1 0.0
17/01:00am 10.7 8.1 9.5 92 0.6 WSW 13 17 7 9 1019.4 1019.4 0.0
17/12:30am 11.0 9.1 9.2 89 0.9 WSW 9 15 5 8 1018.7 1018.7 0.0
17/12:00am 10.9 8.1 8.5 85 1.2 WSW 13 13 7 7 1018.3 1018.3 0.0
 
Date/Time
EST
Temp
°C
App
Temp
°C
Dew
Point
°C
Rel
Hum
%
Delta-T
°C
Wind Press
QNH
hPa
Press
MSL
hPa
Rain since
9am
mm
Dir  Spd
km/h
Gust
km/h
Spd
kts
Gust
kts
16/11:30pm 11.7 8.8 8.0 78 1.8 SW 13 19 7 10 1017.9 1018.0 0.0
16/11:00pm 13.8 10.2 4.8 54 4.2 WSW 13 15 7 8 1017.7 1017.8 0.0
16/10:30pm 15.4 8.8 4.0 46 5.3 N 28 33 15 18 1017.1 1017.2 0.0
16/10:00pm 14.9 8.8 4.9 51 4.7 N 26 28 14 15 1017.2 1017.3 0.0
16/09:30pm 15.9 9.4 4.7 47 5.3 N 28 32 15 17 1017.1 1017.2 0.0
16/09:00pm 14.7 10.0 6.2 56 4.1 N 20 26 11 14 1017.0 1017.1 0.0
16/08:30pm 16.3 11.7 5.8 50 5.1 N 19 22 10 12 1017.1 1017.2 0.0
16/08:00pm 16.6 12.0 5.4 47 5.4 N 19 26 10 14 1016.9 1017.0 0.0
16/07:30pm 16.0 12.6 6.1 52 4.8 N 13 19 7 10 1016.6 1016.7 0.0
16/07:00pm 15.9 12.2 6.5 53 4.6 N 15 17 8 9 1016.2 1016.3 0.0
16/06:30pm 16.7 13.4 6.6 51 5.0 N 13 15 7 8 1016.4 1016.5 0.0
16/06:00pm 17.5 13.6 6.9 49 5.3 N 17 19 9 10 1016.0 1016.1 0.0
16/05:30pm 18.7 14.2 6.8 46 6.0 N 20 26 11 14 1015.8 1015.9 0.0
16/05:00pm 19.9 16.1 7.4 44 6.4 N 17 22 9 12 1016.0 1016.1 0.0
16/04:30pm 19.2 15.4 7.5 46 6.0 NNE 17 22 9 12 1016.0 1016.1 0.0
16/04:00pm 20.0 16.9 7.3 43 6.5 N 13 17 7 9 1016.4 1016.5 0.0
16/03:30pm 19.7 15.4 7.9 46 6.1 N 20 32 11 17 1016.2 1016.3 0.0
16/03:00pm 20.1 13.8 7.2 43 6.6 NNE 30 35 16 19 1016.0 1016.1 0.0
16/02:30pm 20.4 14.1 5.8 38 7.3 N 28 35 15 19 1016.3 1016.4 0.0
16/02:00pm 20.6 14.4 6.1 39 7.3 N 28 32 15 17 1016.7 1016.8 0.0
16/01:30pm 20.8 14.4 5.2 36 7.7 N 28 39 15 21 1017.0 1017.1 0.0
16/01:00pm 20.4 12.9 4.6 35 7.7 N 33 39 18 21 1017.3 1017.4 0.0
16/12:30pm 19.9 13.1 6.9 43 6.6 NNE 32 37 17 20 1017.8 1017.9 0.0
16/12:00pm 18.8 11.4 6.9 46 6.0 NNE 35 44 19 24 1018.4 1018.4 0.0
16/11:30am 18.7 10.8 6.2 44 6.2 NNE 37 46 20 25 1018.8 1018.8 0.0
16/11:00am 17.8 10.3 6.5 47 5.6 NNE 35 44 19 24 1019.5 1019.5 0.0
16/10:30am 16.9 9.5 6.6 50 5.1 NNE 35 48 19 26 1019.8 1019.8 0.0
16/10:00am 16.1 7.8 6.0 51 4.9 NNE 39 50 21 27 1020.0 1020.0 0.0
16/09:30am 14.8 7.2 5.8 55 4.3 NNE 35 44 19 24 1020.5 1020.5 0.0
16/09:00am 14.0 6.3 5.5 56 4.0 NNE 35 44 19 24 1020.5 1020.5 0.0
16/08:30am 13.1 5.4 5.2 58 3.7 NNE 35 43 19 23 1020.7 1020.7 0.0
16/08:00am 12.3 4.9 5.2 62 3.3 NNE 33 41 18 22 1020.7 1020.7 0.0
16/07:30am 11.3 2.8 5.0 65 2.9 NNE 39 52 21 28 1020.3 1020.3 0.0
16/07:00am 10.4 2.6 4.9 69 2.5 NNE 35 41 19 22 1020.2 1020.2 0.0

Latest Capital City Observations: Canberra | Sydney | Melbourne | Brisbane | Adelaide | Perth | Hobart | Darwin

Other formats

Comma delimited format used in spreadsheet applications
http://www.bom.gov.au/fwo/IDV60901/IDV60901.94866.axf

JavaScript Object Notation format (JSON) in row-major order
http://www.bom.gov.au/fwo/IDV60901/IDV60901.94866.json

Data quality

Most of these data are generated automatically and are frequently updated. Quality checks on data are not normally performed. It is possible for incorrect values to appear. Refer to information at About Latest Weather Observations and please check the disclaimer before using these data.